Time;durP1;ratioP1;P1;durP2;ratioP2;P2;SDS_P1;SDS_P2;PMS_P1;PMS_P2;Temp;Humidity;BMP_temperature;BMP_pressure;BME280_temperature;BME280_humidity;BME280_pressure;Samples;Min_cycle;Max_cycle;Signal;HPM_P1;HPM_P2
2023/09/19 00:01:15;;;;;;;1.55;1.45;;;;;;;21.85;100.00;99347.19;4948112;28;20106;-87
2023/09/19 00:03:41;;;;;;;3.15;1.88;;;;;;;21.91;100.00;99356.38;4931352;29;20047;-87
2023/09/19 00:06:07;;;;;;;0.82;0.82;;;;;;;21.83;100.00;99367.50;4946529;29;20039;-88
2023/09/19 00:08:34;;;;;;;3.22;2.15;;;;;;;21.81;100.00;99360.84;4947357;29;20406;-88
2023/09/19 00:11:06;;;;;;;1.27;1.08;;;;;;;21.78;100.00;99356.28;4950184;28;20043;-87
2023/09/19 00:13:33;;;;;;;7.55;1.83;;;;;;;21.76;100.00;99356.03;4934214;29;20134;-88
2023/09/19 00:15:58;;;;;;;2.97;1.05;;;;;;;21.69;100.00;99353.81;4946209;28;20040;-87
2023/09/19 00:18:28;;;;;;;1.20;1.13;;;;;;;21.72;100.00;99349.91;4929409;29;20041;-87
2023/09/19 00:20:57;;;;;;;10.45;2.30;;;;;;;21.79;100.00;99363.47;4946796;28;20130;-88
2023/09/19 00:23:24;;;;;;;2.72;1.77;;;;;;;21.82;100.00;99354.69;4932889;29;20043;-88
2023/09/19 00:25:51;;;;;;;1.25;0.93;;;;;;;21.76;100.00;99350.38;4948132;28;20097;-88
2023/09/19 00:28:18;;;;;;;1.52;0.88;;;;;;;21.67;100.00;99331.00;4947506;28;20047;-87
2023/09/19 00:30:44;;;;;;;3.58;1.52;;;;;;;21.68;100.00;99327.63;4946800;28;20090;-87
2023/09/19 00:33:11;;;;;;;3.22;1.17;;;;;;;21.71;100.00;99345.59;4929364;29;20518;-87
2023/09/19 00:35:36;;;;;;;1.63;1.25;;;;;;;21.71;100.00;99340.72;4931786;29;20389;-87
2023/09/19 00:38:03;;;;;;;11.80;1.13;;;;;;;21.74;100.00;99350.16;4946731;28;20094;-87
2023/09/19 00:40:30;;;;;;;0.70;0.70;;;;;;;21.66;100.00;99330.25;4932977;29;20031;-87
2023/09/19 00:42:59;;;;;;;1.10;0.82;;;;;;;21.73;100.00;99351.44;4947748;28;20098;-88
2023/09/19 00:45:25;;;;;;;1.20;1.08;;;;;;;21.71;100.00;99335.06;4928889;28;20196;-88
2023/09/19 00:47:51;;;;;;;1.10;0.80;;;;;;;21.80;100.00;99343.16;4930792;28;20046;-87
2023/09/19 00:50:23;;;;;;;0.90;0.90;;;;;;;21.79;100.00;99349.34;4945915;28;20043;-88
2023/09/19 00:52:50;;;;;;;3.65;1.83;;;;;;;21.79;100.00;99355.00;4930600;29;20094;-88
2023/09/19 00:55:18;;;;;;;6.47;3.03;;;;;;;21.74;100.00;99352.97;4917763;29;20043;-88
2023/09/19 00:57:45;;;;;;;0.35;0.32;;;;;;;21.63;100.00;99336.19;4949492;28;20066;-88
2023/09/19 01:00:15;;;;;;;1.13;1.05;;;;;;;21.75;100.00;99355.28;4939317;29;20062;-88
2023/09/19 01:16:16;;;;;;;1.30;0.90;;;;;;;21.72;100.00;99349.91;4960656;28;20059;-94
2023/09/19 01:19:15;;;;;;;0.52;0.52;;;;;;;21.65;100.00;99344.88;4942647;28;20083;-94
2023/09/19 01:21:47;;;;;;;2.70;1.40;;;;;;;21.66;100.00;99354.88;4955323;28;20046;-95
2023/09/19 01:24:44;;;;;;;1.50;1.27;;;;;;;21.61;100.00;99339.53;4949861;28;20054;-94
2023/09/19 01:27:25;;;;;;;1.08;0.90;;;;;;;21.61;100.00;99355.69;4962824;28;20523;-94
2023/09/19 01:29:51;;;;;;;1.58;1.48;;;;;;;21.50;100.00;99345.28;4947962;28;20807;-93
2023/09/19 01:32:22;;;;;;;0.55;0.55;;;;;;;21.55;100.00;99358.59;4933522;29;20055;-93
2023/09/19 01:34:53;;;;;;;0.50;0.50;;;;;;;21.51;100.00;99351.72;4937597;28;20046;-94
2023/09/19 01:37:24;;;;;;;1.20;1.05;;;;;;;21.24;100.00;99317.59;4930120;28;20493;-93
2023/09/19 01:40:16;;;;;;;3.00;1.48;;;;;;;21.27;100.00;99313.72;4967873;28;20050;-94
2023/09/19 01:43:09;;;;;;;1.27;1.17;;;;;;;21.47;100.00;99356.88;4950217;28;20063;-94
2023/09/19 01:45:54;;;;;;;0.65;0.63;;;;;;;21.37;100.00;99353.63;4940523;28;20055;-94
2023/09/19 01:48:31;;;;;;;7.82;1.23;;;;;;;21.12;100.00;99327.44;4939994;28;20555;-94
2023/09/19 01:51:05;;;;;;;0.98;0.68;;;;;;;21.19;100.00;99338.16;4955328;28;20035;-94
2023/09/19 01:53:48;;;;;;;1.38;1.05;;;;;;;21.17;100.00;99354.84;4954769;28;20055;-94
2023/09/19 01:56:21;;;;;;;5.22;2.25;;;;;;;20.91;100.00;99318.63;4969966;28;20043;-94
2023/09/19 01:58:50;;;;;;;2.15;1.95;;;;;;;20.94;100.00;99339.38;4950106;28;20031;-94
2023/09/19 02:01:19;;;;;;;1.70;1.50;;;;;;;20.86;100.00;99338.44;4954651;28;20039;-93
2023/09/19 02:03:46;;;;;;;1.48;1.13;;;;;;;20.77;100.00;99331.06;4914498;28;20109;-94
2023/09/19 02:06:17;;;;;;;0.90;0.90;;;;;;;21.02;100.00;99350.84;4930304;29;20947;-94
2023/09/19 02:08:43;;;;;;;0.95;0.80;;;;;;;20.86;100.00;99332.78;4916822;29;20042;-93
2023/09/19 02:11:11;;;;;;;1.42;1.10;;;;;;;20.97;100.00;99355.25;4916791;29;20126;-94
2023/09/19 02:13:37;;;;;;;1.67;1.52;;;;;;;20.87;100.00;99339.94;4911864;29;20421;-94
2023/09/19 02:16:04;;;;;;;0.43;0.43;;;;;;;20.69;100.00;99329.31;4914339;29;20039;-93
2023/09/19 02:18:30;;;;;;;1.42;1.17;;;;;;;20.77;100.00;99341.56;4914116;29;20056;-93
2023/09/19 02:20:58;;;;;;;2.55;1.38;;;;;;;20.75;100.00;99332.84;4928658;29;20047;-93
2023/09/19 02:23:24;;;;;;;1.40;1.30;;;;;;;20.67;100.00;99320.63;4935048;29;20038;-94
2023/09/19 02:25:54;;;;;;;3.40;2.25;;;;;;;20.81;100.00;99350.50;4934493;29;20047;-95
2023/09/19 02:28:22;;;;;;;2.90;1.15;;;;;;;20.80;100.00;99351.78;4909171;29;20070;-94
2023/09/19 02:30:51;;;;;;;0.95;0.95;;;;;;;20.93;100.00;99375.25;4913356;29;20043;-93
2023/09/19 02:33:17;;;;;;;3.92;1.13;;;;;;;20.92;100.00;99364.50;4912853;29;20071;-94
2023/09/19 02:35:43;;;;;;;0.98;0.65;;;;;;;20.80;100.00;99363.81;4915474;29;20071;-93
2023/09/19 02:38:11;;;;;;;1.80;1.70;;;;;;;20.92;100.00;99387.81;4950876;28;20078;-93
2023/09/19 02:40:37;;;;;;;1.40;1.25;;;;;;;20.86;100.00;99377.88;4921711;29;20135;-94
2023/09/19 02:43:03;;;;;;;2.92;1.35;;;;;;;20.83;100.00;99376.09;4912460;29;20138;-94
2023/09/19 02:45:30;;;;;;;0.50;0.50;;;;;;;20.93;100.00;99394.22;4915664;29;20032;-93
2023/09/19 02:47:57;;;;;;;1.60;0.98;;;;;;;20.69;100.00;99368.78;4929118;29;20044;-94
2023/09/19 02:50:23;;;;;;;2.28;0.98;;;;;;;20.80;100.00;99396.88;4914878;29;20560;-93
2023/09/19 02:52:49;;;;;;;5.07;1.75;;;;;;;20.68;100.00;99390.56;4923321;29;20051;-93
2023/09/19 02:55:19;;;;;;;6.60;1.67;;;;;;;20.71;100.00;99400.78;4933070;29;20032;-93
2023/09/19 02:57:55;;;;;;;9.65;1.10;;;;;;;20.62;100.00;99391.88;4932007;29;20043;-93
2023/09/19 03:00:21;;;;;;;0.75;0.70;;;;;;;20.57;100.00;99379.34;4917421;29;20074;-93
2023/09/19 03:02:52;;;;;;;1.35;1.25;;;;;;;20.65;100.00;99388.00;4915127;29;20090;-93
2023/09/19 03:05:18;;;;;;;9.32;1.42;;;;;;;20.46;100.00;99366.09;4924747;29;20528;-93
2023/09/19 03:07:46;;;;;;;0.82;0.82;;;;;;;20.46;100.00;99351.25;4904985;29;20055;-92
2023/09/19 03:10:15;;;;;;;0.95;0.95;;;;;;;20.60;100.00;99377.53;4913693;29;20117;-94
2023/09/19 03:12:42;;;;;;;0.93;0.93;;;;;;;20.65;100.00;99402.88;4935941;29;20516;-93
2023/09/19 03:15:11;;;;;;;1.85;1.08;;;;;;;20.60;100.00;99394.44;4932792;29;20039;-95
2023/09/19 03:17:37;;;;;;;1.27;0.98;;;;;;;20.61;100.00;99390.34;4934430;29;20047;-94
2023/09/19 03:20:08;;;;;;;1.55;1.42;;;;;;;20.55;100.00;99395.25;4924676;29;20087;-93
2023/09/19 03:22:35;;;;;;;0.77;0.75;;;;;;;20.55;100.00;99403.69;4929830;29;20119;-94
2023/09/19 03:25:01;;;;;;;12.05;1.45;;;;;;;20.47;100.00;99387.34;4920113;29;20655;-92
2023/09/19 03:27:27;;;;;;;0.75;0.75;;;;;;;20.52;100.00;99399.09;4906072;29;20066;-93
2023/09/19 03:29:53;;;;;;;1.35;1.13;;;;;;;20.66;100.00;99437.47;4902806;29;20043;-93
2023/09/19 03:32:20;;;;;;;1.35;1.25;;;;;;;20.48;100.00;99407.84;4931226;29;20051;-93
2023/09/19 03:34:48;;;;;;;5.03;2.70;;;;;;;20.55;100.00;99415.72;4927124;29;20050;-94
2023/09/19 03:37:15;;;;;;;1.23;0.98;;;;;;;20.46;100.00;99408.34;4933883;29;20058;-94
2023/09/19 03:39:41;;;;;;;2.95;1.33;;;;;;;20.66;100.00;99448.72;4935854;29;20134;-95
2023/09/19 03:42:07;;;;;;;1.48;1.27;;;;;;;20.57;100.00;99452.63;4920835;29;20151;-96
2023/09/19 03:44:34;;;;;;;3.63;1.45;;;;;;;20.57;100.00;99474.38;4932665;29;20056;-96
2023/09/19 03:47:00;;;;;;;16.35;1.13;;;;;;;20.12;100.00;99439.97;4949211;28;20050;-96
2023/09/19 03:49:28;;;;;;;1.88;0.93;;;;;;;19.97;100.00;99446.69;4935391;29;20039;-96
2023/09/19 03:51:54;;;;;;;0.88;0.88;;;;;;;19.87;100.00;99486.84;4943042;29;20177;-96
2023/09/19 03:54:20;;;;;;;1.58;1.10;;;;;;;19.65;100.00;99479.22;4935867;29;20057;-94
2023/09/19 03:56:46;;;;;;;4.50;2.55;;;;;;;19.64;100.00;99485.34;4933886;29;20095;-96
2023/09/19 03:59:12;;;;;;;1.23;1.00;;;;;;;19.34;100.00;99476.63;4913620;29;20277;-96
2023/09/19 04:01:38;;;;;;;1.85;1.17;;;;;;;19.08;100.00;99468.44;4915647;29;20050;-96
2023/09/19 04:04:08;;;;;;;0.00;0.00;;;;;;;19.03;100.00;99500.09;4912649;29;20032;-95
2023/09/19 04:06:35;;;;;;;1.13;0.30;;;;;;;18.94;100.00;99508.75;4917481;29;20413;-94
2023/09/19 04:09:03;;;;;;;0.30;0.30;;;;;;;18.66;100.00;99477.00;4916938;29;20028;-94
2023/09/19 04:11:30;;;;;;;4.32;0.20;;;;;;;18.71;100.00;99495.94;4935092;29;20039;-95
2023/09/19 04:13:56;;;;;;;0.32;0.15;;;;;;;18.58;100.00;99488.75;4910048;29;20052;-95
2023/09/19 04:16:22;;;;;;;0.10;0.10;;;;;;;18.52;100.00;99490.75;4915488;29;20035;-94
2023/09/19 04:18:48;;;;;;;0.47;0.47;;;;;;;18.47;100.00;99510.38;4918862;29;20414;-95
2023/09/19 04:21:13;;;;;;;0.32;0.32;;;;;;;18.39;100.00;99498.06;4933917;29;20043;-94
2023/09/19 04:23:39;;;;;;;0.22;0.22;;;;;;;18.32;100.00;99492.94;4918559;29;20039;-95
2023/09/19 04:26:04;;;;;;;0.17;0.17;;;;;;;18.31;100.00;99503.41;4933753;29;20067;-95
2023/09/19 04:28:31;;;;;;;0.40;0.28;;;;;;;18.28;100.00;99506.44;4938978;28;20046;-94
2023/09/19 04:30:58;;;;;;;0.43;0.30;;;;;;;18.18;100.00;99500.25;4916042;29;20493;-94
2023/09/19 04:33:25;;;;;;;0.25;0.25;;;;;;;18.16;100.00;99525.25;4930844;29;20055;-93
2023/09/19 04:35:50;;;;;;;0.10;0.10;;;;;;;17.94;100.00;99497.84;4921295;29;20593;-93
2023/09/19 04:38:18;;;;;;;0.03;0.03;;;;;;;18.14;100.00;99533.41;4928254;29;20131;-94
2023/09/19 04:40:44;;;;;;;0.10;0.10;;;;;;;17.83;100.00;99505.41;4933923;29;20095;-94
2023/09/19 04:43:10;;;;;;;0.10;0.10;;;;;;;17.78;100.00;99512.50;4934041;29;20508;-93
2023/09/19 04:45:35;;;;;;;0.17;0.17;;;;;;;17.90;100.00;99530.97;4947790;28;20043;-93
2023/09/19 04:48:02;;;;;;;1.48;0.30;;;;;;;17.86;100.00;99532.47;4947114;29;20094;-93
2023/09/19 04:50:28;;;;;;;0.13;0.13;;;;;;;17.85;100.00;99539.31;4932436;29;20036;-93
2023/09/19 04:52:54;;;;;;;0.10;0.10;;;;;;;17.53;100.00;99524.50;4933834;29;20050;-96
2023/09/19 04:55:20;;;;;;;0.00;0.00;;;;;;;17.48;100.00;99516.81;4937298;29;20039;-93
2023/09/19 04:57:50;;;;;;;0.32;0.32;;;;;;;17.42;100.00;99502.78;4947951;29;20047;-93
2023/09/19 05:00:19;;;;;;;0.08;0.08;;;;;;;17.45;100.00;99529.03;4926195;28;20046;-94
2023/09/19 05:02:52;;;;;;;0.10;0.10;;;;;;;17.30;100.00;99520.75;4927004;29;20036;-92
2023/09/19 05:05:18;;;;;;;0.10;0.10;;;;;;;17.49;100.00;99583.63;4938564;28;20047;-92
2023/09/19 05:07:45;;;;;;;0.00;0.00;;;;;;;17.39;100.00;99584.28;4928245;29;20079;-92
2023/09/19 05:10:12;;;;;;;0.00;0.00;;;;;;;17.25;100.00;99566.31;4948289;28;20047;-92
2023/09/19 05:12:38;;;;;;;0.00;0.00;;;;;;;17.25;100.00;99577.53;4941870;28;20031;-92
2023/09/19 05:15:07;;;;;;;0.00;0.00;;;;;;;17.33;100.00;99586.25;4939116;28;20527;-92
2023/09/19 05:17:35;;;;;;;0.00;0.00;;;;;;;17.25;100.00;99603.53;4943747;28;20074;-92
2023/09/19 05:20:15;;;;;;;0.00;0.00;;;;;;;16.96;100.00;99558.09;4927153;28;20047;-93
2023/09/19 05:22:46;;;;;;;0.00;0.00;;;;;;;16.96;100.00;99583.31;4937677;28;20044;-93
2023/09/19 05:25:16;;;;;;;0.38;0.38;;;;;;;16.79;100.00;99567.06;4912183;29;20077;-92
2023/09/19 05:27:44;;;;;;;0.00;0.00;;;;;;;16.80;100.00;99587.44;4916764;28;20047;-92
2023/09/19 05:30:11;;;;;;;0.00;0.00;;;;;;;17.07;100.00;99623.44;4930463;29;20046;-92
2023/09/19 05:32:57;;;;;;;0.00;0.00;;;;;;;16.73;100.00;99583.03;4955245;28;20109;-93
2023/09/19 05:36:00;;;;;;;0.00;0.00;;;;;;;16.70;100.00;99586.06;4932665;29;20130;-93
2023/09/19 05:38:27;;;;;;;0.15;0.15;;;;;;;16.82;100.00;99614.97;4944720;28;20132;-93
2023/09/19 05:40:53;;;;;;;0.55;0.45;;;;;;;16.91;100.00;99642.81;4931376;28;20066;-92
2023/09/19 05:43:19;;;;;;;0.10;0.10;;;;;;;16.91;100.00;99629.59;4935922;29;20532;-92
2023/09/19 05:45:45;;;;;;;0.22;0.10;;;;;;;16.61;100.00;99598.16;4931520;29;20043;-92
2023/09/19 05:48:13;;;;;;;0.00;0.00;;;;;;;16.81;100.00;99616.22;4957561;28;20529;-91
2023/09/19 05:50:39;;;;;;;0.32;0.32;;;;;;;16.92;100.00;99611.53;4949044;29;20039;-92
2023/09/19 05:53:04;;;;;;;0.05;0.05;;;;;;;16.96;100.00;99606.50;4943577;29;20421;-93
2023/09/19 05:55:30;;;;;;;0.00;0.00;;;;;;;16.95;100.00;99598.56;4928600;29;20036;-92
2023/09/19 05:57:56;;;;;;;0.05;0.05;;;;;;;16.90;100.00;99577.66;4948038;29;20131;-93
2023/09/19 06:00:22;;;;;;;0.00;0.00;;;;;;;16.88;100.00;99570.97;4935109;29;20079;-92
2023/09/19 06:02:55;;;;;;;0.70;0.68;;;;;;;17.20;100.00;99615.44;4941296;28;20070;-92
2023/09/19 06:05:21;;;;;;;0.70;0.28;;;;;;;17.15;100.00;99585.31;4936352;29;20039;-93
2023/09/19 06:07:47;;;;;;;0.00;0.00;;;;;;;17.40;100.00;99625.84;4951174;29;20142;-93
2023/09/19 06:10:14;;;;;;;0.17;0.17;;;;;;;17.30;100.00;99593.63;4917762;29;20142;-93
2023/09/19 06:12:43;;;;;;;0.00;0.00;;;;;;;17.36;100.00;99605.66;4933855;29;20629;-92
2023/09/19 06:15:14;;;;;;;1.10;0.75;;;;;;;17.45;100.00;99619.53;4915019;29;20398;-92
2023/09/19 06:17:43;;;;;;;0.20;0.20;;;;;;;17.43;100.00;99607.28;4946374;29;20043;-93
2023/09/19 06:20:14;;;;;;;0.15;0.15;;;;;;;17.43;100.00;99618.50;4955991;29;20047;-95
2023/09/19 06:22:44;;;;;;;0.77;0.20;;;;;;;17.39;100.00;99631.97;4904352;29;20131;-94
2023/09/19 06:25:11;;;;;;;0.00;0.00;;;;;;;17.54;100.00;99675.47;4932865;29;20047;-95
2023/09/19 06:27:42;;;;;;;0.20;0.20;;;;;;;17.67;100.00;99692.69;4937016;29;20046;-96
2023/09/19 06:30:09;;;;;;;0.43;0.43;;;;;;;17.58;100.00;99689.28;4952349;28;20173;-94
2023/09/19 06:32:35;;;;;;;0.10;0.10;;;;;;;17.47;100.00;99687.09;4938862;29;20040;-96
2023/09/19 06:35:00;;;;;;;1.23;1.13;;;;;;;17.73;100.00;99722.84;4938082;29;20441;-95
2023/09/19 06:37:29;;;;;;;13.25;1.98;;;;;;;17.55;100.00;99705.03;4917538;29;20055;-95
2023/09/19 06:39:56;;;;;;;0.85;0.40;;;;;;;17.56;100.00;99698.16;4949601;28;20038;-94
2023/09/19 06:42:22;;;;;;;0.30;0.30;;;;;;;17.68;100.00;99719.47;4921721;29;20055;-96
2023/09/19 06:44:49;;;;;;;0.10;0.10;;;;;;;17.47;100.00;99684.28;4937526;29;20054;-96
2023/09/19 06:47:16;;;;;;;0.30;0.30;;;;;;;17.78;100.00;99719.34;4934444;29;20048;-95
2023/09/19 06:49:43;;;;;;;0.00;0.00;;;;;;;17.67;100.00;99720.75;4933654;29;20126;-93
2023/09/19 06:52:09;;;;;;;0.20;0.20;;;;;;;17.47;100.00;99695.50;4920364;29;20035;-95
2023/09/19 06:54:35;;;;;;;0.10;0.10;;;;;;;17.55;100.00;99721.09;4935261;29;20051;-94
2023/09/19 06:57:01;;;;;;;0.40;0.38;;;;;;;17.56;100.00;99743.03;4938884;29;20131;-94
2023/09/19 06:59:27;;;;;;;0.05;0.05;;;;;;;17.81;100.00;99785.66;4938157;29;20477;-93
2023/09/19 07:01:53;;;;;;;0.00;0.00;;;;;;;17.67;100.00;99776.84;4915482;29;20039;-94
2023/09/19 07:04:21;;;;;;;0.10;0.10;;;;;;;17.60;100.00;99774.47;4948502;29;20051;-95
2023/09/19 07:06:50;;;;;;;0.00;0.00;;;;;;;17.64;100.00;99788.28;4928439;29;20046;-95
2023/09/19 07:09:16;;;;;;;0.43;0.32;;;;;;;17.65;100.00;99770.19;4935482;29;20486;-93
2023/09/19 07:11:42;;;;;;;0.10;0.10;;;;;;;17.73;100.00;99767.72;4930999;29;20047;-95
2023/09/19 07:14:11;;;;;;;0.85;0.43;;;;;;;17.84;100.00;99756.63;4950282;28;20082;-93
2023/09/19 07:16:42;;;;;;;0.90;0.65;;;;;;;17.77;100.00;99751.44;4936828;29;20055;-94
2023/09/19 07:19:08;;;;;;;0.55;0.20;;;;;;;17.86;100.00;99765.34;4933049;29;20405;-94
2023/09/19 07:21:35;;;;;;;0.13;0.13;;;;;;;17.89;100.00;99758.72;4944266;29;20035;-93
2023/09/19 07:24:01;;;;;;;0.20;0.20;;;;;;;18.04;100.00;99784.66;4917628;29;20110;-93
2023/09/19 07:26:27;;;;;;;0.00;0.00;;;;;;;18.01;100.00;99766.00;4944513;28;20153;-93
2023/09/19 07:28:54;;;;;;;0.00;0.00;;;;;;;18.20;100.00;99784.03;4916001;29;20408;-94
2023/09/19 07:31:19;;;;;;;0.00;0.00;;;;;;;18.22;100.00;99780.75;4933406;29;20035;-93
2023/09/19 07:33:45;;;;;;;0.32;0.32;;;;;;;18.38;100.00;99794.94;4935758;29;20059;-93
2023/09/19 07:36:13;;;;;;;0.00;0.00;;;;;;;18.19;100.00;99765.69;4932906;29;20044;-93
2023/09/19 07:38:42;;;;;;;0.00;0.00;;;;;;;18.33;100.00;99764.78;4923424;29;20051;-93
2023/09/19 07:41:11;;;;;;;7.93;1.45;;;;;;;18.53;100.00;99773.16;4944190;29;20043;-93
2023/09/19 07:43:38;;;;;;;0.25;0.25;;;;;;;18.36;100.00;99752.53;4956342;29;20398;-94
2023/09/19 07:46:08;;;;;;;0.30;0.30;;;;;;;18.52;100.00;99788.47;4963006;29;20051;-94
2023/09/19 07:48:35;;;;;;;0.15;0.15;;;;;;;18.43;100.00;99805.47;4954805;28;20400;-93
2023/09/19 07:51:03;;;;;;;0.47;0.35;;;;;;;18.29;100.00;99803.53;4933898;29;20478;-94
2023/09/19 07:53:29;;;;;;;0.00;0.00;;;;;;;18.13;100.00;99795.72;4919098;29;20040;-95
2023/09/19 07:56:05;;;;;;;0.00;0.00;;;;;;;17.84;100.00;99779.84;4932420;28;20057;-94
2023/09/19 07:58:31;;;;;;;0.10;0.10;;;;;;;17.79;100.00;99774.19;4935548;29;20051;-94
2023/09/19 08:01:02;;;;;;;0.00;0.00;;;;;;;17.87;100.00;99778.09;4949182;28;20402;-95
2023/09/19 08:03:27;;;;;;;0.00;0.00;;;;;;;17.86;100.00;99762.53;4921882;29;20493;-94
2023/09/19 08:05:53;;;;;;;0.30;0.30;;;;;;;18.17;100.00;99796.28;4939803;29;20051;-95
2023/09/19 08:08:20;;;;;;;0.30;0.30;;;;;;;18.07;100.00;99787.25;4923052;29;20039;-96
2023/09/19 08:10:48;;;;;;;0.00;0.00;;;;;;;18.04;100.00;99759.38;4924513;29;20106;-95
2023/09/19 08:13:17;;;;;;;0.00;0.00;;;;;;;18.14;100.00;99781.19;4937962;29;20520;-96
2023/09/19 08:15:47;;;;;;;0.32;0.32;;;;;;;18.03;100.00;99763.47;4934473;29;20051;-96
2023/09/19 08:18:15;;;;;;;0.05;0.05;;;;;;;18.03;100.00;99757.88;4942710;29;20468;-94
2023/09/19 08:20:46;;;;;;;0.20;0.20;;;;;;;18.35;100.00;99812.81;4944501;29;20450;-96
2023/09/19 08:23:16;;;;;;;0.25;0.15;;;;;;;18.44;100.00;99820.28;4930162;29;20039;-95
2023/09/19 08:25:44;;;;;;;0.10;0.10;;;;;;;18.51;100.00;99784.09;4938251;29;20051;-96
2023/09/19 08:28:13;;;;;;;0.30;0.30;;;;;;;18.59;100.00;99788.03;4929030;29;20027;-96
2023/09/19 08:30:40;;;;;;;0.00;0.00;;;;;;;18.89;100.00;99810.22;4934957;29;20043;-95
2023/09/19 08:33:07;;;;;;;0.10;0.10;;;;;;;18.76;100.00;99796.59;4933432;29;20054;-95
2023/09/19 08:35:33;;;;;;;2.17;0.40;;;;;;;18.57;100.00;99768.09;4922552;29;20138;-95
2023/09/19 08:38:03;;;;;;;1.75;0.55;;;;;;;18.73;100.00;99786.34;4920555;29;20127;-96
2023/09/19 08:40:35;;;;;;;0.80;0.43;;;;;;;18.91;100.00;99818.94;4935935;29;20051;-96
2023/09/19 08:43:01;;;;;;;0.90;0.75;;;;;;;18.76;100.00;99790.22;4936638;29;20053;-96
2023/09/19 08:45:28;;;;;;;0.10;0.10;;;;;;;19.01;100.00;99801.34;4921129;29;20047;-95
2023/09/19 08:48:06;;;;;;;0.05;0.05;;;;;;;19.28;100.00;99819.69;4920592;29;20054;-95
2023/09/19 08:50:34;;;;;;;0.38;0.30;;;;;;;19.40;100.00;99787.56;4947449;29;20048;-95
2023/09/19 08:53:10;;;;;;;0.32;0.32;;;;;;;19.61;100.00;99798.69;4915176;29;20040;-94
2023/09/19 08:55:37;;;;;;;0.17;0.15;;;;;;;19.53;100.00;99810.38;4909394;29;20048;-94
2023/09/19 08:58:10;;;;;;;0.47;0.47;;;;;;;19.56;100.00;99805.81;4913050;29;20070;-95
2023/09/19 09:00:36;;;;;;;0.00;0.00;;;;;;;20.00;100.00;99839.00;4927476;29;20071;-95
2023/09/19 09:03:02;;;;;;;0.20;0.20;;;;;;;20.23;100.00;99840.59;4934692;29;20402;-94
2023/09/19 09:05:30;;;;;;;0.40;0.10;;;;;;;20.20;100.00;99802.19;4950426;29;20043;-94
2023/09/19 09:07:56;;;;;;;0.40;0.40;;;;;;;20.25;100.00;99809.88;4934781;29;20047;-95
2023/09/19 09:10:22;;;;;;;0.90;0.40;;;;;;;20.56;100.00;99830.69;4934960;29;20027;-95
2023/09/19 09:12:53;;;;;;;0.20;0.20;;;;;;;20.98;100.00;99844.56;4918802;29;20047;-93
2023/09/19 09:15:21;;;;;;;0.25;0.25;;;;;;;21.32;100.00;99817.09;4946903;28;20081;-95
2023/09/19 09:17:52;;;;;;;0.00;0.00;;;;;;;21.68;100.00;99841.34;4935006;29;20421;-93
2023/09/19 09:20:18;;;;;;;0.10;0.10;;;;;;;21.81;100.00;99826.69;4934212;29;20501;-94
2023/09/19 09:22:55;;;;;;;0.10;0.10;;;;;;;21.93;100.00;99850.03;4952789;28;20086;-93
2023/09/19 09:25:24;;;;;;;0.10;0.10;;;;;;;21.85;100.00;99855.41;4954400;29;20055;-93
2023/09/19 09:28:03;;;;;;;0.10;0.10;;;;;;;21.60;100.00;99823.41;4952780;29;20051;-93
2023/09/19 09:30:37;;;;;;;0.50;0.50;;;;;;;21.90;100.00;99856.69;4954303;28;20043;-95
2023/09/19 09:33:13;;;;;;;0.68;0.40;;;;;;;21.49;100.00;99828.34;4951604;29;20059;-92
2023/09/19 09:35:52;;;;;;;0.20;0.20;;;;;;;21.63;100.00;99847.03;4922467;29;20044;-93
2023/09/19 09:38:32;;;;;;;0.50;0.50;;;;;;;21.65;100.00;99802.09;4934389;29;20048;-93
2023/09/19 09:41:06;;;;;;;0.25;0.25;;;;;;;22.28;100.00;99848.03;4955745;28;20043;-94
2023/09/19 09:43:40;;;;;;;0.43;0.43;;;;;;;22.56;100.00;99849.94;4921277;29;20047;-93
2023/09/19 09:51:39;;;;;;;0.20;0.20;;;;;;;23.31;100.00;99836.22;4947432;29;20051;-94
2023/09/19 09:54:12;;;;;;;0.30;0.30;;;;;;;23.42;100.00;99839.69;4929925;29;20053;-93
2023/09/19 09:59:46;;;;;;;0.57;0.25;;;;;;;23.86;100.00;99815.03;4951552;29;20485;-93
2023/09/19 10:02:24;;;;;;;0.08;0.08;;;;;;;24.08;100.00;99866.50;4920808;29;20074;-92
2023/09/19 10:04:58;;;;;;;0.25;0.20;;;;;;;24.15;100.00;99868.75;4907444;29;20046;-94
2023/09/19 10:07:32;;;;;;;0.88;0.88;;;;;;;23.58;100.00;99846.50;4948014;29;20047;-94
2023/09/19 10:10:09;;;;;;;0.03;0.03;;;;;;;23.05;100.00;99823.31;4934162;29;20035;-93
2023/09/19 10:12:38;;;;;;;0.70;0.68;;;;;;;22.99;100.00;99825.47;4952889;29;20079;-94
2023/09/19 10:15:07;;;;;;;0.40;0.20;;;;;;;23.75;100.00;99866.13;4917347;29;20471;-93
2023/09/19 10:17:37;;;;;;;0.10;0.10;;;;;;;24.28;100.00;99830.44;4935888;29;20058;-93
2023/09/19 10:20:17;;;;;;;0.40;0.40;;;;;;;25.01;100.00;99865.69;4937059;29;20055;-94
2023/09/19 10:22:56;;;;;;;0.57;0.47;;;;;;;24.99;100.00;99837.09;4928776;29;20046;-94
2023/09/19 10:25:33;;;;;;;0.52;0.47;;;;;;;24.80;100.00;99844.84;4969342;28;20054;-94
2023/09/19 10:28:03;;;;;;;0.20;0.17;;;;;;;24.65;100.00;99860.84;4936298;29;20047;-92
2023/09/19 10:30:31;;;;;;;0.30;0.30;;;;;;;24.57;100.00;99858.63;4936498;29;20517;-92
2023/09/19 10:33:02;;;;;;;0.20;0.20;;;;;;;24.55;100.00;99829.25;4932664;29;20058;-93
2023/09/19 10:35:28;;;;;;;0.20;0.20;;;;;;;24.93;100.00;99870.47;4933388;29;20058;-93
2023/09/19 10:37:57;;;;;;;0.50;0.50;;;;;;;25.08;100.00;99862.22;4953432;29;20036;-94
2023/09/19 10:40:30;;;;;;;0.50;0.50;;;;;;;24.73;98.13;99845.50;4937979;29;20047;-95
2023/09/19 10:43:05;;;;;;;0.30;0.30;;;;;;;24.34;100.00;99834.00;4938662;29;20110;-95
2023/09/19 10:45:33;;;;;;;0.10;0.10;;;;;;;24.55;100.00;99880.31;4919163;29;20110;-95
2023/09/19 10:48:00;;;;;;;0.15;0.15;;;;;;;24.73;100.00;99873.09;4915044;29;20040;-95
2023/09/19 10:50:31;;;;;;;0.93;0.45;;;;;;;24.52;100.00;99855.88;4918063;29;20079;-94
2023/09/19 10:53:04;;;;;;;0.93;0.90;;;;;;;24.60;100.00;99829.19;4945608;29;20490;-94
2023/09/19 10:55:32;;;;;;;0.10;0.10;;;;;;;24.78;100.00;99858.84;4936917;29;20048;-94
2023/09/19 10:58:14;;;;;;;0.20;0.20;;;;;;;25.28;100.00;99879.94;4935739;29;20066;-95
2023/09/19 11:01:17;;;;;;;0.22;0.20;;;;;;;25.05;93.64;99883.16;4939370;29;20043;-94
2023/09/19 11:03:44;;;;;;;0.70;0.70;;;;;;;24.84;95.57;99865.16;4912813;29;20058;-94
2023/09/19 11:06:18;;;;;;;0.15;0.15;;;;;;;24.72;97.64;99848.88;4942275;29;20042;-95
2023/09/19 11:09:16;;;;;;;0.20;0.20;;;;;;;25.12;99.27;99872.47;4926963;29;20494;-93
2023/09/19 11:11:47;;;;;;;0.30;0.30;;;;;;;25.53;100.00;99865.06;4933900;29;20040;-94
2023/09/19 11:14:25;;;;;;;0.22;0.22;;;;;;;25.68;96.18;99892.91;4934662;29;20063;-94
2023/09/19 11:17:11;;;;;;;0.20;0.20;;;;;;;25.59;96.20;99890.53;4952274;29;20043;-91
2023/09/19 11:25:39;;;;;;;0.20;0.20;;;;;;;26.28;91.42;99875.97;4944923;29;20043;-91
2023/09/19 11:28:17;;;;;;;0.10;0.10;;;;;;;26.57;89.67;99881.81;4951997;29;20031;-92
2023/09/19 11:30:50;;;;;;;2.00;0.52;;;;;;;26.85;85.21;99871.31;4948449;28;20089;-92
2023/09/19 11:36:24;;;;;;;0.28;0.28;;;;;;;26.29;76.82;99834.06;4939978;29;20498;-91
2023/09/19 11:38:49;;;;;;;0.10;0.10;;;;;;;26.32;77.63;99858.56;4947394;29;20078;-92
2023/09/19 11:41:21;;;;;;;0.10;0.10;;;;;;;26.45;83.96;99855.66;4930563;29;20466;-93
2023/09/19 11:43:58;;;;;;;0.13;0.13;;;;;;;26.79;76.92;99856.44;4938487;29;20466;-92
2023/09/19 11:46:25;;;;;;;0.30;0.25;;;;;;;26.93;70.21;99848.63;4944818;29;20106;-92
2023/09/19 11:48:54;;;;;;;0.20;0.20;;;;;;;26.71;70.74;99855.59;4952237;29;20047;-92
2023/09/19 11:51:27;;;;;;;0.38;0.38;;;;;;;26.48;76.96;99814.78;4952084;29;20039;-94
2023/09/19 11:53:59;;;;;;;0.28;0.28;;;;;;;26.80;74.78;99828.75;4952455;28;20051;-92
2023/09/19 11:56:27;;;;;;;0.20;0.20;;;;;;;26.75;70.73;99809.72;4948391;28;20051;-91
2023/09/19 11:58:57;;;;;;;0.10;0.10;;;;;;;26.82;70.51;99801.25;4929851;29;20122;-91
2023/09/19 12:01:34;;;;;;;0.17;0.17;;;;;;;27.08;71.28;99808.13;4949520;29;20047;-92
2023/09/19 12:04:01;;;;;;;0.20;0.20;;;;;;;27.54;68.71;99821.38;4938928;29;20082;-92
2023/09/19 12:06:32;;;;;;;0.22;0.22;;;;;;;27.64;68.34;99833.81;4952604;28;20047;-91
2023/09/19 12:08:59;;;;;;;0.75;0.52;;;;;;;27.53;64.83;99828.44;4946824;28;20060;-91